Weer

Current Metar

EHAM: EHAM 171225Z 29008KT 9999 FEW020 BKN030 17/13 Q1019 NOSIG
EHRD: EHRD 171225Z AUTO 28005KT 230V330 9999 SCT023 OVC027 18/13 Q1019 NOSIG
EHGG: EHGG 171225Z AUTO 26004KT 230V300 9999 NSC 19/14 Q1018 NOSIG
EHEH: EHEH 171225Z AUTO VRB02KT 9999 SCT370 20/13 Q1019 BLU 35003KT 9999 FEW025 SCT250
EHBK: EHBK 171225Z AUTO 35001KT 9000 NSC 20/12 Q1019 NOSIG

Search METAR


Wind Charts

+ 0600h
FL100 FL180 FL240 FL300 FL340

+ 1200h
FL100 FL180 FL240 FL300 FL340

+ 1800h
FL100 FL180 FL240 FL300 FL340

+ 2400h
FL100 FL180 FL240 FL300 FL340

Europe & Africa charts only, updated daily.

 

Weather Services

MET Office